Willard, Ohio
Current Conditions -  °F | °C
As of 9:52 PM on Thursday 18 Dec 2014 (Local Time) from KMFD Reporting Station
Overcast Overcast  
Wind Chill: 20°   Ceiling: 700
Heat Index: 27°   Visibility: 7mi
Dew Point: 25°   Wind: 6mph
Humidity: 92%   Direction: 270°W
Pressure: 30.16"   Gusts: NA
Location:  41.05°N, 82.73°W
Report Text: KMFD 190252Z 27005KT 7SM OVC007 M03/M04 A3016 RMK AO2 SLP229 T10281039 58001
Loading
Personal Weather Stations






























Interactive Weather Map New forecast layout! Learn more

10-Day Weather Forecast

Advertisements
Track Severe Weather on mobile